Time;durP1;ratioP1;P1;durP2;ratioP2;P2;SDS_P1;SDS_P2;PMS_P1;PMS_P2;Temp;Humidity;BMP_temperature;BMP_pressure;BME280_temperature;BME280_humidity;BME280_pressure;Samples;Min_cycle;Max_cycle;Signal;HPM_P1;HPM_P2
2022/03/18 00:01:41;;;;;;;9.37;5.00;;;2.00;99.90;;;;;;5094120;28;20537;-69
2022/03/18 00:04:31;;;;;;;9.53;5.20;;;2.00;99.90;;;;;;5104599;28;20496;-70
2022/03/18 00:07:24;;;;;;;7.70;5.10;;;1.90;99.90;;;;;;5105635;28;20444;-65
2022/03/18 00:10:14;;;;;;;9.43;5.60;;;1.90;99.90;;;;;;5101896;28;20571;-67
2022/03/18 00:13:02;;;;;;;6.83;5.17;;;1.90;99.90;;;;;;5097831;28;20500;-67
2022/03/18 00:15:50;;;;;;;6.17;4.60;;;1.90;99.90;;;;;;5101407;28;20888;-70
2022/03/18 00:18:38;;;;;;;7.27;5.03;;;1.80;99.90;;;;;;5100619;28;20440;-67
2022/03/18 00:21:28;;;;;;;9.33;4.57;;;1.90;99.90;;;;;;5077040;28;20565;-67
2022/03/18 00:24:16;;;;;;;10.57;5.30;;;1.80;99.90;;;;;;5096948;28;20483;-67
2022/03/18 00:27:05;;;;;;;10.10;5.13;;;1.80;99.90;;;;;;5101214;28;20607;-67
2022/03/18 00:29:54;;;;;;;9.00;5.37;;;1.80;99.90;;;;;;5100364;28;20489;-67
2022/03/18 00:32:43;;;;;;;7.20;5.00;;;1.80;99.90;;;;;;5101176;28;20565;-67
2022/03/18 00:35:52;;;;;;;12.43;5.80;;;1.80;99.90;;;;;;5103055;27;20475;-67
2022/03/18 00:38:41;;;;;;;9.50;4.97;;;1.70;99.90;;;;;;5101229;28;20475;-67
2022/03/18 00:41:30;;;;;;;8.33;4.90;;;1.70;99.90;;;;;;5086785;28;21313;-67
2022/03/18 00:44:20;;;;;;;9.07;5.20;;;1.70;99.90;;;;;;5100174;28;21071;-67
2022/03/18 00:52:03;;;;;;;13.53;5.97;;;1.70;99.90;;;;;;5099425;28;20460;-67
2022/03/18 00:53:24;;;;;;;8.30;5.17;;;1.70;99.90;;;;;;5100801;28;20512;-67
2022/03/18 00:56:13;;;;;;;7.63;5.17;;;1.60;99.90;;;;;;5098735;28;20537;-67
2022/03/18 00:59:01;;;;;;;9.73;4.90;;;1.60;99.90;;;;;;5087868;27;20888;-67
2022/03/18 01:01:52;;;;;;;8.33;5.30;;;1.50;99.90;;;;;;5102275;28;20471;-67
2022/03/18 01:04:40;;;;;;;10.93;4.70;;;1.50;99.90;;;;;;5099761;28;20472;-67
2022/03/18 01:07:29;;;;;;;11.77;5.47;;;1.50;99.90;;;;;;5101475;28;20532;-67
2022/03/18 01:10:18;;;;;;;10.43;5.70;;;1.50;99.90;;;;;;5099460;28;20505;-67
2022/03/18 01:13:07;;;;;;;12.23;5.50;;;1.40;99.90;;;;;;5105563;28;20545;-67
2022/03/18 01:15:55;;;;;;;8.80;5.10;;;1.40;99.90;;;;;;5101656;28;20519;-68
2022/03/18 01:18:44;;;;;;;8.60;5.50;;;1.40;99.90;;;;;;5091459;28;20456;-68
2022/03/18 01:21:32;;;;;;;14.73;6.00;;;1.40;99.90;;;;;;5105405;28;20460;-68
2022/03/18 01:24:20;;;;;;;8.70;5.13;;;1.40;99.90;;;;;;5096607;28;20512;-68
2022/03/18 01:27:08;;;;;;;6.80;4.80;;;1.30;99.90;;;;;;5097310;28;20452;-67
2022/03/18 01:29:58;;;;;;;7.30;5.40;;;1.30;99.90;;;;;;5102904;28;20905;-67
2022/03/18 01:32:46;;;;;;;9.70;4.67;;;1.30;99.90;;;;;;5103410;28;20570;-67
2022/03/18 01:35:34;;;;;;;8.43;4.50;;;1.30;99.90;;;;;;5100733;28;20499;-67
2022/03/18 01:38:22;;;;;;;10.13;4.63;;;1.20;99.90;;;;;;5114368;28;20457;-67
2022/03/18 01:41:10;;;;;;;8.30;5.90;;;1.20;99.90;;;;;;5121972;28;20468;-70
2022/03/18 01:44:01;;;;;;;8.80;5.10;;;1.20;99.90;;;;;;5116414;28;20525;-67
2022/03/18 01:46:50;;;;;;;6.90;4.53;;;1.20;99.90;;;;;;5119443;28;20536;-67
2022/03/18 01:49:39;;;;;;;8.37;4.70;;;1.10;99.90;;;;;;5119292;28;20444;-68
2022/03/18 01:52:28;;;;;;;7.33;5.10;;;1.10;99.90;;;;;;5111155;28;20607;-67
2022/03/18 01:55:17;;;;;;;6.30;4.33;;;1.10;99.90;;;;;;5119815;28;20565;-67
2022/03/18 01:58:05;;;;;;;6.40;4.77;;;1.10;99.90;;;;;;5119619;28;20449;-68
2022/03/18 02:00:54;;;;;;;7.20;4.60;;;1.10;99.90;;;;;;5109828;28;21182;-68
2022/03/18 02:03:43;;;;;;;9.97;5.10;;;1.10;99.90;;;;;;5095903;28;20484;-67
2022/03/18 02:06:32;;;;;;;10.03;5.47;;;1.00;99.90;;;;;;5119721;28;20451;-68
2022/03/18 02:09:21;;;;;;;9.83;5.17;;;1.00;99.90;;;;;;5117080;28;20947;-67
2022/03/18 02:12:10;;;;;;;12.13;4.80;;;1.00;99.90;;;;;;5092000;27;20489;-67
2022/03/18 02:14:59;;;;;;;9.57;5.50;;;1.00;99.90;;;;;;5094673;28;20563;-68
2022/03/18 02:17:47;;;;;;;9.30;4.90;;;1.00;99.90;;;;;;5099157;28;20452;-68
2022/03/18 02:20:36;;;;;;;13.57;5.47;;;1.00;99.90;;;;;;5098097;28;20468;-67
2022/03/18 02:23:26;;;;;;;8.20;4.67;;;1.00;99.90;;;;;;5096258;28;21112;-67
2022/03/18 02:26:15;;;;;;;7.70;4.97;;;0.90;99.90;;;;;;5097733;28;20876;-66
2022/03/18 02:29:04;;;;;;;14.13;5.70;;;0.90;99.90;;;;;;5099036;28;20456;-68
2022/03/18 02:31:52;;;;;;;9.80;5.33;;;0.90;99.90;;;;;;5086871;28;21553;-68
2022/03/18 02:34:41;;;;;;;8.30;5.23;;;0.90;99.90;;;;;;5097797;28;20560;-68
2022/03/18 02:37:29;;;;;;;7.23;4.97;;;0.90;99.90;;;;;;5100651;28;20538;-67
2022/03/18 02:40:19;;;;;;;8.07;4.80;;;0.90;99.90;;;;;;5101018;28;20505;-68
2022/03/18 02:43:07;;;;;;;8.70;5.10;;;0.90;99.90;;;;;;5093856;28;20542;-67
2022/03/18 02:45:55;;;;;;;7.47;5.00;;;0.90;99.90;;;;;;5097635;28;21093;-67
2022/03/18 02:48:44;;;;;;;6.60;5.00;;;0.90;99.90;;;;;;5101000;28;20448;-67
2022/03/18 02:51:35;;;;;;;8.40;4.70;;;0.90;99.90;;;;;;5096606;28;20804;-67
2022/03/18 02:54:24;;;;;;;9.67;5.43;;;0.80;99.90;;;;;;5098132;28;20562;-68
2022/03/18 02:57:14;;;;;;;9.20;5.10;;;0.90;99.90;;;;;;5105418;28;20548;-68
2022/03/18 03:00:02;;;;;;;5.67;4.40;;;0.90;99.90;;;;;;5089258;28;20476;-67
2022/03/18 03:02:50;;;;;;;10.90;5.33;;;0.90;99.90;;;;;;5098067;28;20926;-68
2022/03/18 03:08:45;;;;;;;7.30;4.63;;;0.80;99.90;;;;;;5098300;28;20978;-68
2022/03/18 03:11:34;;;;;;;10.40;4.60;;;0.80;99.90;;;;;;5094692;28;20469;-68
2022/03/18 03:14:23;;;;;;;7.67;5.10;;;0.80;99.90;;;;;;5096811;28;21006;-68
2022/03/18 03:17:11;;;;;;;11.33;5.00;;;0.80;99.90;;;;;;5097823;28;20476;-68
2022/03/18 03:20:00;;;;;;;7.73;4.90;;;0.80;99.90;;;;;;5089098;28;20901;-69
2022/03/18 03:22:49;;;;;;;7.40;4.80;;;0.80;99.90;;;;;;5100523;28;20459;-68
2022/03/18 03:25:37;;;;;;;8.93;4.90;;;0.80;99.90;;;;;;5093212;28;21031;-67
2022/03/18 03:28:25;;;;;;;9.57;5.47;;;0.80;99.90;;;;;;5099379;28;20543;-67
2022/03/18 03:31:14;;;;;;;9.73;5.73;;;0.80;99.90;;;;;;5098293;28;20524;-67
2022/03/18 03:34:03;;;;;;;9.27;5.23;;;0.80;99.90;;;;;;5092511;28;20559;-68
2022/03/18 03:36:52;;;;;;;7.67;5.10;;;0.70;99.90;;;;;;5098804;28;20444;-68
2022/03/18 03:39:40;;;;;;;5.73;4.00;;;0.80;99.90;;;;;;5098044;28;20448;-68
2022/03/18 03:42:28;;;;;;;9.20;5.00;;;0.70;99.90;;;;;;5087021;28;20532;-68
2022/03/18 03:45:17;;;;;;;9.93;5.13;;;0.70;99.90;;;;;;5095157;28;20475;-68
2022/03/18 03:48:08;;;;;;;10.63;5.00;;;0.70;99.90;;;;;;5097016;28;20484;-67
2022/03/18 03:50:56;;;;;;;7.67;4.53;;;0.70;99.90;;;;;;5097960;28;20471;-67
2022/03/18 03:53:44;;;;;;;7.60;4.10;;;0.70;99.90;;;;;;5094946;28;20991;-68
2022/03/18 03:56:33;;;;;;;6.20;4.97;;;0.70;99.90;;;;;;5097404;28;20553;-68
2022/03/18 03:59:21;;;;;;;6.80;5.60;;;0.70;99.90;;;;;;5097971;28;20445;-68
2022/03/18 04:02:11;;;;;;;8.87;4.10;;;0.70;99.90;;;;;;5089170;28;20452;-66
2022/03/18 04:05:01;;;;;;;6.63;4.10;;;0.70;99.90;;;;;;5095346;28;20464;-68
2022/03/18 04:07:49;;;;;;;8.50;5.20;;;0.70;99.90;;;;;;5096251;28;21046;-67
2022/03/18 04:10:42;;;;;;;7.70;5.03;;;0.70;99.90;;;;;;5097550;28;20464;-67
2022/03/18 04:13:30;;;;;;;12.13;5.07;;;0.70;99.90;;;;;;5094654;28;20485;-68
2022/03/18 04:16:18;;;;;;;7.13;4.70;;;0.70;99.90;;;;;;5095519;28;20475;-67
2022/03/18 04:19:07;;;;;;;6.10;4.63;;;0.70;99.90;;;;;;5089946;28;20456;-68
2022/03/18 04:21:56;;;;;;;8.80;5.40;;;0.70;99.90;;;;;;5089144;28;20463;-68
2022/03/18 04:24:45;;;;;;;7.80;5.30;;;0.70;99.90;;;;;;5098664;28;20532;-68
2022/03/18 04:27:33;;;;;;;10.87;4.70;;;0.70;99.90;;;;;;5099523;28;20459;-68
2022/03/18 04:30:21;;;;;;;13.00;5.40;;;0.70;99.90;;;;;;5099112;28;20944;-67
2022/03/18 04:33:09;;;;;;;14.37;6.00;;;0.70;99.90;;;;;;5096163;28;20468;-67
2022/03/18 04:35:57;;;;;;;11.77;5.00;;;0.70;99.90;;;;;;5098510;27;20543;-68
2022/03/18 04:38:47;;;;;;;13.00;5.90;;;0.70;99.90;;;;;;5098671;28;20600;-68
2022/03/18 04:41:35;;;;;;;9.90;5.80;;;0.70;99.90;;;;;;5097433;28;20472;-68
2022/03/18 04:44:23;;;;;;;11.00;5.50;;;0.80;99.90;;;;;;5092245;28;20479;-68
2022/03/18 04:47:11;;;;;;;11.60;6.17;;;0.80;99.90;;;;;;5098738;28;20443;-67
2022/03/18 04:50:01;;;;;;;9.13;5.50;;;0.80;99.90;;;;;;5099707;28;20606;-68
2022/03/18 04:52:49;;;;;;;14.97;6.10;;;0.80;99.90;;;;;;5099018;28;20583;-68
2022/03/18 04:55:38;;;;;;;11.93;6.07;;;0.90;99.90;;;;;;5098203;28;20510;-68
2022/03/18 04:58:27;;;;;;;10.87;5.93;;;0.90;99.90;;;;;;5119508;28;20520;-69
2022/03/18 05:01:15;;;;;;;11.47;6.50;;;0.90;99.90;;;;;;5112713;28;20457;-67
2022/03/18 05:04:04;;;;;;;7.50;5.63;;;0.90;99.90;;;;;;5077204;28;20485;-67
2022/03/18 05:06:52;;;;;;;14.30;6.10;;;0.80;99.90;;;;;;5093778;28;20464;-68
2022/03/18 05:09:41;;;;;;;8.60;6.30;;;0.80;99.90;;;;;;5098665;28;20444;-67
2022/03/18 05:12:31;;;;;;;10.60;6.30;;;0.80;99.90;;;;;;5099378;28;20495;-67
2022/03/18 05:15:21;;;;;;;9.67;5.90;;;0.80;99.90;;;;;;5093243;28;20874;-67
2022/03/18 05:18:09;;;;;;;10.63;6.27;;;0.80;99.90;;;;;;5098825;28;20441;-67
2022/03/18 05:20:58;;;;;;;12.13;6.53;;;0.80;99.90;;;;;;5096355;28;20621;-67
2022/03/18 05:23:46;;;;;;;8.90;6.33;;;0.80;99.90;;;;;;5084214;28;20617;-67
2022/03/18 05:26:34;;;;;;;13.27;6.30;;;0.70;99.90;;;;;;5098009;28;20995;-68
2022/03/18 05:29:25;;;;;;;9.17;5.87;;;0.70;99.90;;;;;;5097071;28;20477;-68
2022/03/18 05:32:13;;;;;;;9.20;5.57;;;0.70;99.90;;;;;;5093933;28;20583;-68
2022/03/18 05:35:01;;;;;;;10.60;6.23;;;0.70;99.90;;;;;;5097464;28;20472;-68
2022/03/18 05:37:49;;;;;;;12.77;6.17;;;0.70;99.90;;;;;;5096413;28;20609;-68
2022/03/18 05:40:38;;;;;;;7.73;6.17;;;0.70;99.90;;;;;;5099042;28;20910;-67
2022/03/18 05:43:26;;;;;;;11.23;5.77;;;0.70;99.90;;;;;;5084475;28;20508;-67
2022/03/18 05:46:15;;;;;;;11.80;5.60;;;0.70;99.90;;;;;;5096383;28;20977;-67
2022/03/18 05:49:04;;;;;;;8.53;6.30;;;0.70;99.90;;;;;;5103907;28;20558;-68
2022/03/18 05:51:52;;;;;;;6.60;5.60;;;0.70;99.90;;;;;;5096340;28;20608;-67
2022/03/18 05:54:40;;;;;;;10.83;6.40;;;0.70;99.90;;;;;;5097168;28;20555;-68
2022/03/18 05:57:29;;;;;;;6.67;5.10;;;0.70;99.90;;;;;;5095779;28;20546;-68
2022/03/18 06:00:17;;;;;;;6.70;5.73;;;0.80;99.90;;;;;;5089108;28;20492;-67
2022/03/18 06:03:07;;;;;;;9.10;6.10;;;0.80;99.90;;;;;;5093444;28;20491;-67
2022/03/18 06:05:55;;;;;;;9.63;5.77;;;0.90;99.90;;;;;;5095310;28;20480;-68
2022/03/18 06:11:49;;;;;;;7.63;6.13;;;1.00;99.90;;;;;;5095717;28;20580;-67
2022/03/18 06:14:38;;;;;;;12.33;6.37;;;1.10;99.90;;;;;;5096073;28;20578;-68
2022/03/18 06:17:26;;;;;;;9.03;6.07;;;1.10;99.90;;;;;;5094705;28;21822;-68
2022/03/18 06:20:16;;;;;;;11.13;5.87;;;1.20;99.90;;;;;;5082537;28;20475;-68
2022/03/18 06:23:04;;;;;;;10.73;6.90;;;1.30;99.90;;;;;;5098280;28;20587;-68
2022/03/18 06:25:52;;;;;;;10.00;6.83;;;1.40;99.90;;;;;;5096551;28;20571;-68
2022/03/18 06:28:40;;;;;;;10.97;7.47;;;1.40;99.90;;;;;;5096123;28;20506;-68
2022/03/18 06:31:28;;;;;;;7.67;6.43;;;1.50;99.90;;;;;;5112043;28;20448;-68
2022/03/18 06:34:18;;;;;;;9.67;6.77;;;1.50;99.90;;;;;;5108929;28;20632;-67
2022/03/18 06:37:07;;;;;;;10.47;7.10;;;1.60;99.90;;;;;;5107621;28;20544;-67
2022/03/18 06:39:55;;;;;;;12.33;7.10;;;1.70;99.90;;;;;;5093168;28;20457;-68
2022/03/18 06:42:43;;;;;;;9.90;6.90;;;1.80;99.90;;;;;;5106529;28;20480;-68
2022/03/18 06:45:31;;;;;;;8.80;7.10;;;1.90;99.90;;;;;;5108748;28;20567;-67
2022/03/18 06:48:20;;;;;;;9.87;6.70;;;2.00;99.90;;;;;;5109682;28;20506;-68
2022/03/18 06:51:08;;;;;;;9.90;6.33;;;2.10;99.90;;;;;;5114592;28;20540;-68
2022/03/18 06:53:58;;;;;;;9.50;6.67;;;2.20;99.90;;;;;;5114148;28;20483;-67
2022/03/18 06:56:46;;;;;;;11.47;7.30;;;2.30;99.90;;;;;;5090339;28;20574;-68
2022/03/18 06:59:34;;;;;;;10.07;6.70;;;2.40;99.90;;;;;;5096013;28;20588;-68
2022/03/18 07:02:22;;;;;;;11.80;7.37;;;2.50;99.90;;;;;;5093239;28;20484;-68
2022/03/18 07:05:12;;;;;;;14.80;8.67;;;2.60;99.90;;;;;;5093324;28;20491;-68
2022/03/18 07:08:01;;;;;;;11.60;6.57;;;2.60;99.90;;;;;;5095364;28;20451;-68
2022/03/18 07:10:50;;;;;;;8.67;6.83;;;2.70;99.90;;;;;;5096003;28;20493;-68
2022/03/18 07:13:38;;;;;;;10.77;7.10;;;2.80;99.90;;;;;;5096971;28;20606;-69
2022/03/18 07:19:33;;;;;;;13.17;8.70;;;3.00;99.90;;;;;;5091322;28;20964;-68
2022/03/18 07:22:21;;;;;;;12.23;9.33;;;3.10;99.90;;;;;;5096401;28;20461;-68
2022/03/18 07:25:13;;;;;;;14.13;9.37;;;3.20;99.90;;;;;;5095212;28;20662;-67
2022/03/18 07:28:02;;;;;;;15.27;9.97;;;3.20;99.90;;;;;;5091589;28;21223;-68
2022/03/18 07:30:50;;;;;;;13.00;9.53;;;3.20;99.90;;;;;;5093610;28;20466;-68
2022/03/18 07:33:38;;;;;;;15.83;10.03;;;3.30;99.90;;;;;;5093523;28;20548;-68
2022/03/18 07:36:27;;;;;;;12.63;9.87;;;3.40;99.90;;;;;;5084338;28;20473;-68
2022/03/18 07:39:15;;;;;;;15.40;10.20;;;3.50;99.90;;;;;;5091263;28;20954;-68
2022/03/18 07:42:04;;;;;;;17.03;10.87;;;3.60;99.90;;;;;;5093656;28;20482;-68
2022/03/18 07:44:53;;;;;;;15.80;12.67;;;3.70;99.90;;;;;;5080038;28;20496;-68
2022/03/18 07:47:41;;;;;;;16.27;10.97;;;3.70;99.90;;;;;;5092067;28;20928;-68
2022/03/18 07:50:32;;;;;;;11.93;10.30;;;3.90;99.90;;;;;;5111069;28;20569;-68
2022/03/18 07:53:20;;;;;;;12.60;11.30;;;4.00;99.90;;;;;;5100010;28;20554;-68
2022/03/18 07:56:08;;;;;;;13.50;10.47;;;4.10;99.90;;;;;;5095378;28;20495;-68
2022/03/18 07:58:57;;;;;;;17.00;11.10;;;4.20;99.90;;;;;;5083956;28;20507;-68
2022/03/18 08:01:46;;;;;;;16.10;11.07;;;4.30;99.90;;;;;;5099564;28;20547;-68
2022/03/18 08:04:35;;;;;;;18.23;11.00;;;4.30;99.90;;;;;;5082220;28;20492;-68
2022/03/18 08:07:23;;;;;;;14.00;10.23;;;4.40;99.90;;;;;;5098504;28;20445;-68
2022/03/18 08:10:12;;;;;;;17.23;12.23;;;4.50;99.90;;;;;;5097713;28;20481;-67
2022/03/18 08:13:00;;;;;;;14.07;11.63;;;4.60;99.90;;;;;;5098440;28;20548;-67
2022/03/18 08:15:48;;;;;;;14.97;11.60;;;4.60;99.90;;;;;;5099397;28;20460;-68
2022/03/18 08:18:38;;;;;;;12.87;11.33;;;4.70;99.90;;;;;;5097246;28;20456;-68
2022/03/18 08:21:26;;;;;;;19.50;11.67;;;4.80;99.90;;;;;;5084653;28;20894;-68
2022/03/18 08:24:15;;;;;;;12.40;10.80;;;4.80;99.90;;;;;;5098282;28;21028;-67
2022/03/18 08:27:03;;;;;;;12.93;11.00;;;4.90;99.90;;;;;;5097335;28;20583;-68
2022/03/18 08:29:54;;;;;;;13.57;10.27;;;5.00;99.90;;;;;;5098454;28;20879;-68
2022/03/18 08:32:42;;;;;;;18.83;11.40;;;5.10;99.90;;;;;;5096411;28;20483;-68
2022/03/18 08:35:32;;;;;;;11.40;10.00;;;5.20;99.90;;;;;;5096235;28;20613;-68
2022/03/18 08:38:20;;;;;;;16.53;9.93;;;5.30;99.90;;;;;;5097422;28;20447;-68
2022/03/18 08:41:08;;;;;;;12.40;10.50;;;5.30;99.90;;;;;;5089457;28;20927;-68
2022/03/18 08:43:56;;;;;;;13.80;10.43;;;5.30;99.90;;;;;;5098389;28;20503;-68
2022/03/18 08:46:44;;;;;;;13.67;10.47;;;5.40;99.90;;;;;;5097921;28;20573;-68
2022/03/18 08:49:32;;;;;;;14.43;10.73;;;5.50;99.90;;;;;;5100186;28;21029;-68
2022/03/18 08:52:22;;;;;;;13.97;10.17;;;5.60;99.90;;;;;;5099927;27;20594;-68
2022/03/18 08:55:11;;;;;;;14.40;9.90;;;5.70;99.90;;;;;;5095628;28;20548;-68
2022/03/18 08:57:59;;;;;;;16.07;10.07;;;5.80;99.90;;;;;;5097894;28;20593;-68
2022/03/18 09:00:47;;;;;;;16.07;10.20;;;5.90;99.90;;;;;;5086471;28;20636;-68
2022/03/18 09:03:35;;;;;;;11.00;8.97;;;6.10;99.90;;;;;;5095369;28;20483;-68
2022/03/18 09:06:23;;;;;;;14.93;8.60;;;6.10;99.90;;;;;;5096578;28;20448;-68
2022/03/18 09:09:13;;;;;;;15.73;8.23;;;6.30;99.90;;;;;;5098939;28;20598;-68
2022/03/18 09:12:01;;;;;;;13.50;9.07;;;6.50;99.90;;;;;;5094026;28;20513;-68
2022/03/18 09:14:50;;;;;;;14.37;8.67;;;6.60;99.90;;;;;;5097924;28;20472;-68
2022/03/18 09:17:38;;;;;;;11.10;8.83;;;6.70;99.90;;;;;;5096727;28;20570;-67
2022/03/18 09:20:27;;;;;;;14.90;9.73;;;6.90;99.90;;;;;;5079105;28;20958;-68
2022/03/18 09:23:16;;;;;;;13.00;9.10;;;7.00;99.90;;;;;;5097228;28;20988;-68
2022/03/18 09:26:08;;;;;;;12.47;10.20;;;7.10;99.90;;;;;;5097150;28;20517;-68
2022/03/18 09:28:56;;;;;;;11.93;9.80;;;7.20;99.90;;;;;;5093522;28;20582;-67
2022/03/18 09:31:44;;;;;;;13.40;9.73;;;7.30;99.90;;;;;;5097141;28;20613;-67
2022/03/18 09:34:34;;;;;;;12.43;8.70;;;7.40;99.90;;;;;;5096892;28;20484;-68
2022/03/18 09:37:23;;;;;;;12.43;9.97;;;7.50;99.90;;;;;;5097252;28;20443;-68
2022/03/18 09:40:12;;;;;;;10.87;8.50;;;7.60;99.90;;;;;;5071871;28;20594;-67
2022/03/18 09:43:21;;;;;;;14.07;10.23;;;7.70;99.90;;;;;;5093847;28;20460;-68
2022/03/18 09:46:11;;;;;;;13.60;9.87;;;7.80;99.90;;;;;;5096082;28;21060;-70
2022/03/18 09:49:22;;;;;;;11.93;8.50;;;7.90;99.90;;;;;;5097930;28;20441;-68
2022/03/18 09:52:10;;;;;;;11.70;9.03;;;8.10;99.90;;;;;;5095180;28;20471;-67
2022/03/18 09:54:58;;;;;;;16.53;9.97;;;8.20;99.90;;;;;;5094662;28;20568;-68
2022/03/18 09:57:46;;;;;;;13.07;9.17;;;8.30;99.90;;;;;;5097647;28;20945;-67
2022/03/18 10:00:36;;;;;;;11.43;8.67;;;8.30;99.90;;;;;;5084126;28;20449;-68
2022/03/18 10:03:35;;;;;;;13.83;9.07;;;8.40;99.90;;;;;;5094746;28;20467;-68
2022/03/18 10:06:28;;;;;;;14.37;8.20;;;8.50;99.90;;;;;;5098383;28;20469;-68
2022/03/18 10:09:16;;;;;;;16.13;9.13;;;8.60;99.90;;;;;;5093465;28;20448;-67
2022/03/18 10:12:05;;;;;;;13.93;8.90;;;8.80;99.90;;;;;;5096812;28;20536;-68
2022/03/18 10:15:13;;;;;;;13.60;9.40;;;8.90;99.90;;;;;;5097027;28;21029;-68
2022/03/18 10:18:02;;;;;;;17.63;10.10;;;9.00;99.90;;;;;;5084232;28;20557;-66
2022/03/18 10:20:51;;;;;;;14.30;9.20;;;9.10;99.90;;;;;;5095830;28;20500;-68
2022/03/18 10:23:39;;;;;;;11.37;9.27;;;9.20;99.90;;;;;;5081566;28;20488;-68
2022/03/18 10:26:27;;;;;;;12.87;9.30;;;9.30;99.90;;;;;;5093657;28;20493;-68
2022/03/18 10:29:15;;;;;;;15.43;10.20;;;9.40;99.90;;;;;;5095338;28;20475;-68
2022/03/18 10:32:04;;;;;;;11.80;9.10;;;9.50;99.90;;;;;;5096693;28;21079;-70
2022/03/18 10:38:00;;;;;;;10.97;9.00;;;9.70;99.90;;;;;;5093335;28;20477;-68
2022/03/18 10:40:51;;;;;;;11.10;9.23;;;9.80;99.90;;;;;;5098184;28;20525;-69
2022/03/18 10:43:54;;;;;;;12.37;8.70;;;9.90;99.90;;;;;;5106569;28;21002;-71
2022/03/18 10:46:43;;;;;;;15.13;8.77;;;10.00;99.90;;;;;;5112255;28;20439;-68
2022/03/18 10:49:31;;;;;;;11.53;8.37;;;10.10;99.90;;;;;;5098389;28;20547;-68
2022/03/18 10:52:23;;;;;;;12.17;8.60;;;10.30;99.90;;;;;;5098229;28;20495;-68
2022/03/18 10:55:19;;;;;;;11.67;9.00;;;10.50;99.90;;;;;;5086897;28;21000;-68
2022/03/18 10:58:10;;;;;;;17.07;8.00;;;10.60;99.90;;;;;;5096073;28;20452;-68
2022/03/18 11:01:01;;;;;;;10.90;7.57;;;10.80;99.90;;;;;;5096110;28;20972;-68
2022/03/18 11:03:50;;;;;;;13.50;7.97;;;10.90;99.90;;;;;;5096538;28;20476;-68
2022/03/18 11:06:39;;;;;;;11.83;8.50;;;11.00;99.90;;;;;;5084315;28;20455;-68
2022/03/18 11:11:06;;;;;;;13.50;8.30;;;11.10;99.90;;;;;;5097474;28;20511;-68
2022/03/18 11:12:37;;;;;;;10.10;7.97;;;11.20;99.90;;;;;;5095969;28;20544;-68
2022/03/18 11:15:25;;;;;;;8.63;7.40;;;11.40;99.90;;;;;;5088631;28;20477;-68
2022/03/18 11:18:14;;;;;;;12.07;7.57;;;11.60;99.90;;;;;;5098127;28;20526;-68
2022/03/18 11:21:05;;;;;;;12.90;7.40;;;11.70;99.90;;;;;;5111195;28;20491;-67
2022/03/18 11:23:55;;;;;;;11.47;7.40;;;11.90;99.90;;;;;;5111571;28;20509;-69
2022/03/18 11:26:47;;;;;;;11.47;8.10;;;12.20;99.90;;;;;;5111161;28;20450;-68
2022/03/18 11:29:35;;;;;;;9.80;7.00;;;12.30;99.90;;;;;;5110219;28;20463;-70
2022/03/18 11:32:24;;;;;;;7.67;6.20;;;12.40;99.90;;;;;;5107875;28;20484;-68
2022/03/18 11:35:14;;;;;;;9.63;6.47;;;12.50;99.90;;;;;;5098142;28;20552;-68
2022/03/18 11:38:06;;;;;;;9.47;6.90;;;12.70;99.90;;;;;;5094913;28;20469;-68
2022/03/18 11:40:57;;;;;;;10.60;6.00;;;12.90;99.90;;;;;;5107101;28;20563;-68
2022/03/18 11:43:54;;;;;;;10.93;6.50;;;13.10;99.90;;;;;;5103510;28;20538;-68
2022/03/18 11:46:42;;;;;;;9.53;7.10;;;13.30;99.90;;;;;;5093448;28;20452;-68
2022/03/18 11:49:32;;;;;;;7.97;5.93;;;13.50;99.90;;;;;;5098306;28;20489;-68
2022/03/18 11:52:20;;;;;;;9.77;5.57;;;13.60;99.90;;;;;;5097404;28;20594;-68
2022/03/18 11:55:11;;;;;;;6.93;5.30;;;13.80;99.90;;;;;;5086689;28;20605;-69
2022/03/18 11:57:59;;;;;;;7.20;5.70;;;13.90;99.90;;;;;;5096389;28;20538;-68
2022/03/18 12:00:48;;;;;;;8.43;4.80;;;14.00;99.90;;;;;;5098860;28;21077;-69
2022/03/18 12:03:37;;;;;;;6.30;4.17;;;14.10;99.90;;;;;;5095369;28;20483;-69
2022/03/18 12:06:28;;;;;;;5.77;4.47;;;14.20;99.90;;;;;;5097383;28;21227;-68
2022/03/18 12:09:48;;;;;;;7.20;5.13;;;14.40;99.90;;;;;;5100204;28;20454;-69
2022/03/18 12:12:39;;;;;;;6.80;4.57;;;14.70;99.90;;;;;;5084751;28;20494;-69
2022/03/18 12:15:28;;;;;;;5.80;3.63;;;14.90;99.90;;;;;;5093172;28;21183;-69
2022/03/18 12:18:28;;;;;;;6.50;4.13;;;15.10;99.90;;;;;;5096781;28;20860;-69
2022/03/18 12:21:36;;;;;;;6.63;4.73;;;15.40;99.90;;;;;;5096555;28;20479;-69
2022/03/18 12:24:29;;;;;;;8.53;4.57;;;15.60;99.90;;;;;;5094777;28;21630;-69
2022/03/18 12:27:19;;;;;;;5.67;4.33;;;15.90;99.90;;;;;;5097573;28;20448;-69
2022/03/18 12:30:09;;;;;;;4.97;3.80;;;15.90;99.90;;;;;;5097468;28;20539;-69
2022/03/18 12:32:59;;;;;;;5.77;3.80;;;15.80;99.90;;;;;;5090273;28;20479;-72
2022/03/18 12:35:50;;;;;;;6.63;4.33;;;16.00;99.90;;;;;;5091740;28;20992;-69
2022/03/18 12:38:38;;;;;;;5.07;4.10;;;16.30;99.90;;;;;;5096372;28;21101;-69
2022/03/18 12:41:27;;;;;;;3.93;3.50;;;16.70;99.90;;;;;;5083875;28;20621;-70
2022/03/18 12:44:30;;;;;;;5.53;3.50;;;17.10;99.90;;;;;;5095877;28;20510;-69
2022/03/18 12:47:19;;;;;;;6.10;3.83;;;17.60;99.90;;;;;;5100353;28;20876;-69
2022/03/18 12:50:07;;;;;;;7.40;4.00;;;18.50;99.90;;;;;;5098928;28;20504;-69
2022/03/18 12:52:57;;;;;;;5.90;4.10;;;19.00;99.90;;;;;;5098471;28;20500;-69
2022/03/18 12:55:49;;;;;;;8.10;5.53;;;19.20;99.90;;;;;;5098787;28;20464;-68
2022/03/18 12:58:39;;;;;;;6.03;5.10;;;19.90;99.90;;;;;;5090253;28;20658;-68
2022/03/18 13:01:55;;;;;;;10.47;5.60;;;20.50;99.90;;;;;;5097472;28;20828;-69
2022/03/18 13:04:43;;;;;;;6.53;5.43;;;22.10;99.90;;;;;;5100323;28;20472;-70
2022/03/18 13:07:32;;;;;;;10.40;6.40;;;22.40;99.90;;;;;;5098572;28;20931;-69
2022/03/18 13:10:22;;;;;;;5.67;5.03;;;21.30;99.90;;;;;;5096840;28;20467;-69
2022/03/18 13:13:13;;;;;;;6.30;5.70;;;21.60;99.90;;;;;;5101045;28;20526;-69
2022/03/18 13:16:03;;;;;;;7.27;4.90;;;23.00;99.90;;;;;;5098592;28;20507;-69
2022/03/18 13:18:52;;;;;;;5.97;5.00;;;24.10;99.90;;;;;;5084565;28;20635;-69
2022/03/18 13:21:43;;;;;;;6.30;5.40;;;23.00;99.90;;;;;;5082122;27;20475;-67
2022/03/18 13:24:31;;;;;;;7.17;5.27;;;23.00;99.90;;;;;;5087190;28;20476;-69
2022/03/18 13:27:21;;;;;;;7.60;5.13;;;22.90;99.90;;;;;;5078652;28;20608;-70
2022/03/18 13:33:18;;;;;;;6.33;4.43;;;23.60;99.90;;;;;;5087279;27;20499;-69
2022/03/18 13:36:20;;;;;;;4.87;4.10;;;22.30;99.90;;;;;;5080502;27;21586;-69
2022/03/18 13:39:10;;;;;;;5.77;3.60;;;23.20;99.90;;;;;;5086594;28;20595;-72
2022/03/18 13:41:59;;;;;;;5.57;3.60;;;24.40;99.80;;;;;;5081852;27;20583;-69
2022/03/18 13:44:49;;;;;;;6.17;2.80;;;25.10;97.00;;;;;;5081034;28;20484;-69
2022/03/18 13:47:48;;;;;;;5.20;3.17;;;25.90;97.10;;;;;;5081780;28;20523;-69
2022/03/18 13:50:44;;;;;;;5.77;3.83;;;26.10;95.10;;;;;;5092087;28;20455;-69
2022/03/18 13:53:32;;;;;;;7.10;3.70;;;25.50;93.70;;;;;;5092935;28;20475;-68
2022/03/18 13:56:20;;;;;;;5.23;4.00;;;25.20;94.20;;;;;;5091702;28;20447;-69
2022/03/18 13:59:13;;;;;;;5.47;4.20;;;25.00;95.50;;;;;;5075772;27;20447;-69
2022/03/18 14:02:06;;;;;;;5.23;4.03;;;24.20;95.00;;;;;;5082702;27;20493;-68
2022/03/18 14:04:55;;;;;;;6.70;4.03;;;23.60;95.40;;;;;;5073416;28;21764;-69
2022/03/18 14:07:45;;;;;;;5.83;4.10;;;23.30;95.80;;;;;;5086509;28;20452;-69
2022/03/18 14:10:40;;;;;;;5.87;4.07;;;23.10;95.30;;;;;;5069120;27;20452;-68
2022/03/18 14:13:30;;;;;;;9.27;4.87;;;22.70;96.80;;;;;;5068443;27;20483;-69
2022/03/18 14:16:20;;;;;;;6.47;4.40;;;22.50;98.60;;;;;;5072398;27;21078;-68
2022/03/18 14:19:10;;;;;;;6.50;4.53;;;22.00;98.50;;;;;;5080575;27;20447;-68
2022/03/18 14:21:58;;;;;;;12.73;4.93;;;21.50;98.20;;;;;;5088796;27;20452;-68
2022/03/18 14:24:46;;;;;;;8.57;4.57;;;20.80;99.90;;;;;;5084238;27;20519;-68
2022/03/18 14:27:36;;;;;;;5.43;4.97;;;20.40;99.90;;;;;;5071716;27;20461;-68
2022/03/18 14:30:27;;;;;;;5.90;5.23;;;20.00;99.90;;;;;;5082939;28;20457;-68
2022/03/18 14:33:16;;;;;;;6.50;4.87;;;19.60;99.90;;;;;;5085254;27;20501;-68
2022/03/18 14:36:06;;;;;;;6.10;4.50;;;19.20;99.90;;;;;;5082558;28;20986;-68
2022/03/18 14:39:02;;;;;;;6.53;4.97;;;19.00;99.90;;;;;;5075653;28;20548;-68
2022/03/18 14:41:50;;;;;;;9.10;5.37;;;18.70;99.90;;;;;;5084175;28;20459;-68
2022/03/18 14:44:40;;;;;;;7.47;4.53;;;18.50;99.90;;;;;;5090850;28;20472;-69
2022/03/18 14:47:28;;;;;;;6.17;4.63;;;18.40;99.90;;;;;;5081780;28;20456;-69
2022/03/18 14:50:17;;;;;;;6.83;5.10;;;18.10;99.90;;;;;;5090245;28;20534;-69
2022/03/18 14:53:08;;;;;;;6.67;4.50;;;17.90;99.90;;;;;;5088862;27;20495;-68
2022/03/18 14:59:03;;;;;;;4.83;4.33;;;17.80;99.90;;;;;;5081602;28;20492;-70
2022/03/18 15:01:51;;;;;;;7.07;4.60;;;17.70;99.90;;;;;;5085889;27;20448;-70
2022/03/18 15:04:39;;;;;;;6.10;4.37;;;17.80;99.90;;;;;;5089958;28;20503;-70
2022/03/18 15:07:27;;;;;;;7.97;4.60;;;17.70;99.90;;;;;;5086919;28;21208;-70